Santana do Sao Francisco, Brazil
Current Conditions -  °F | °C
As of 10:00 PM on Tuesday 27 Jan 2015 (Local Time) from SBAR Reporting Station
Scattered Clouds Scattered Clouds  
Wind Chill: 79°   Ceiling: Unl
Heat Index: 81°   Visibility: 6mi
Dew Point: 68°   Wind: 8mph
Humidity: 69%   Direction: 100°E
Pressure: 29.97"   Gusts: NA
Location:  10.29°S, 36.61°W
Report Text: SBAR 280100Z 10007KT 9999 SCT015 26/20 Q1015
Loading
Personal Weather Stations






























Interactive Weather Map New forecast layout! Learn more

10-Day Weather Forecast

Advertisements
Track Severe Weather on mobile